• Join FlightAware (Why Join?)
  • Login
  • US Flag 
07:21AM EST


 

Airport Tracker/Info


-or-


 

Live Flight TrackerFlight Track Log ✈ SWA2236 ✈ 11-Jul-2013 ✈ KBWI - KALB

Flight Track Log - Related Links

Times and Time Zones

All times are in EDT time to prevent confusion due to time zone crossing. See the SWA2236 flight status page for this flight to view local times or setup timezone preferences in your user account.

Time Position Orientation Groundspeed Altitude Reporting Facility
EDT Latitude Longitude Course Direction KTS MPH feet Rate Location/Type
11:45PM 39.1833 -76.7167 194° South 179 206 1,800  Level Potomac TRACON
11:46PM 39.1333 -76.7333 194° South 223 257 4,000 2,280 Climbing Potomac TRACON
11:48PM 39.0992 -76.5678 105° East 220 253 9,000 2,400 Climbing Washington Center
11:49PM 39.1144 -76.4583 80° East 257 296 11,800 2,940 Climbing Washington Center
11:50PM 39.1342 -76.3356 78° East 309 356 15,000 3,120 Climbing Washington Center
11:51PM 39.1619 -76.2047 75° East 349 402 18,200 3,420 Climbing Washington Center
11:52PM 39.2292 -76.0872 54° Northeast 360 414 21,900 2,760 Climbing Washington Center
11:53PM 39.2983 -75.9778 51° Northeast 367 422 23,700 1,500 Climbing Washington Center
11:54PM 39.3736 -75.8600 50° Northeast 397 457 24,900 1,080 Climbing Washington Center
11:55PM 39.4572 -75.7258 51° Northeast 431 496 25,900 1,080 Climbing Washington Center
11:56PM 39.5469 -75.5836 51° Northeast 471 542 27,100 1,260 Climbing Washington Center
11:57PM 39.6342 -75.4381 52° Northeast 498 573 28,500 900 Climbing Washington Center
11:58PM 39.7256 -75.2894 51° Northeast 516 594 29,000 240 Climbing Washington Center
11:59PM 39.8147 -75.1458 51° Northeast 516 594 29,000  Level Washington Center
12:00AM 39.9311 -74.9478 52° Northeast 553 636 29,000  Level New York Center
12:01AM 40.0197 -74.7986 52° Northeast 523 602 29,000  Level New York Center
12:02AM 40.1014 -74.6622 52° Northeast 514 592 29,000  Level New York Center
12:03AM 40.2342 -74.5528 32° Northeast 514 592 29,000  Level New York Center
12:04AM 40.3794 -74.5064 14° North 514 592 29,000  Level New York Center
12:06AM 40.6889 -74.4108 13° North 516 594 29,000  Level Boston Center
12:07AM 40.8478 -74.3717 11° North 521 600 29,000  Level Boston Center
12:08AM 40.9903 -74.3292 13° North 521 600 29,000  Level Boston Center
12:09AM 41.1181 -74.2861 14° North 527 606 29,000 -360 Level Boston Center
12:10AM 41.2753 -74.2353 14° North 527 606 28,300 -1,500 Descending Boston Center
12:11AM 41.4136 -74.1922 13° North 527 606 26,000 -1,500 Descending Boston Center
12:12AM 41.5161 -74.1617 13° North 503 579 25,300 -2,280 Descending Boston Center
12:13AM 41.6586 -74.1183 13° North 485 558 21,500 -3,540 Descending Boston Center
12:14AM 41.7758 -74.0825 13° North 453 521 18,300 -3,300 Descending Boston Center
12:15AM 41.9056 -74.0411 13° North 431 496 14,900 -3,060 Descending Boston Center
12:17AM 42.0458 -74.0000 12° North 411 473 11,500 -1,800 Descending Boston Center
12:18AM 42.1422 -73.9689 13° North 353 406 10,900 -780 Descending Boston Center
12:19AM 42.2322 -73.9347 16° North 291 335 10,000 -1,320 Descending Boston Center
12:20AM 42.3097 -73.9028 17° North 294 338 8,300 -1,620 Descending Boston Center
12:21AM 42.3850 -73.8708 17° North 280 322 6,800 -1,440 Descending Boston Center
12:22AM 42.4583 -73.8417 16° North 270 311 5,400 -1,500 Descending Boston Center
12:23AM 42.5256 -73.8119 18° North 263 303 3,800 -1,680 Descending Boston Center
12:24AM 42.5944 -73.8022 North 245 282 2,100 -960 Descending Boston Center
12:25AM 42.6528 -73.8036 359° North 187 215 1,900 -540 Descending Boston Center
12:26AM 42.6922 -73.8072 356° North 112 129 1,100 -720 Descending Boston Center
12:27AM 42.7278 -73.8081 359° North 118 136 500 -600 Descending Boston Center
12:29AM 42.7333 -73.8000 10° North  Level FlightAware Approximate